createdAt,value
2022-08-27T00:00:45.545Z,23.18
2022-08-27T00:03:12.179Z,23.10
2022-08-27T00:05:38.898Z,23.06
2022-08-27T00:08:06.510Z,23.05
2022-08-27T00:10:33.909Z,23.05
2022-08-27T00:13:00.583Z,23.04
2022-08-27T00:15:27.944Z,23.03
2022-08-27T00:17:54.401Z,22.97
2022-08-27T00:20:23.503Z,22.94
2022-08-27T00:22:50.080Z,22.89
2022-08-27T00:25:16.593Z,22.87
2022-08-27T00:27:43.027Z,22.86
2022-08-27T00:30:15.913Z,22.77
2022-08-27T00:32:42.580Z,22.71
2022-08-27T00:35:09.576Z,22.67
2022-08-27T00:37:36.230Z,22.66
2022-08-27T00:40:04.929Z,22.63
2022-08-27T00:42:31.547Z,22.58
2022-08-27T00:44:59.270Z,22.55
2022-08-27T00:47:28.503Z,22.55
2022-08-27T00:50:01.779Z,22.52
2022-08-27T00:52:38.106Z,22.52
2022-08-27T00:55:09.334Z,22.46
2022-08-27T00:57:38.821Z,22.42
2022-08-27T01:00:08.316Z,22.42
2022-08-27T01:02:34.857Z,22.41
2022-08-27T01:05:08.874Z,22.39
2022-08-27T01:07:38.502Z,22.37
2022-08-27T01:10:12.298Z,22.37
2022-08-27T01:12:39.145Z,22.37
2022-08-27T01:15:10.064Z,22.33
2022-08-27T01:17:39.546Z,22.29
2022-08-27T01:20:09.442Z,22.27
2022-08-27T01:22:51.499Z,22.25
2022-08-27T01:25:18.640Z,22.24
2022-08-27T01:27:46.378Z,22.23
2022-08-27T01:30:16.399Z,22.22
2022-08-27T01:32:43.408Z,22.10
2022-08-27T01:35:11.570Z,22.13
2022-08-27T01:37:38.022Z,22.12
2022-08-27T01:40:06.449Z,22.14
2022-08-27T01:42:39.174Z,22.12
2022-08-27T01:45:09.183Z,22.13
2022-08-27T01:47:36.469Z,22.09
2022-08-27T01:50:09.813Z,22.11
2022-08-27T01:52:36.305Z,22.11
2022-08-27T01:55:02.868Z,22.08
2022-08-27T01:57:29.307Z,22.02
2022-08-27T01:59:57.481Z,21.99
2022-08-27T02:02:24.475Z,21.94
2022-08-27T02:04:51.709Z,21.96
2022-08-27T02:07:18.717Z,21.94
2022-08-27T02:09:45.313Z,21.93
2022-08-27T02:12:11.762Z,21.93
2022-08-27T02:14:38.277Z,21.88
2022-08-27T02:17:04.725Z,21.84
2022-08-27T02:19:31.382Z,21.90
2022-08-27T02:22:00.352Z,21.87
2022-08-27T02:24:30.122Z,21.89
2022-08-27T02:26:57.320Z,21.90
2022-08-27T02:29:24.371Z,21.91
2022-08-27T02:31:50.931Z,21.92
2022-08-27T02:34:18.105Z,21.94
2022-08-27T02:36:44.594Z,21.93
2022-08-27T02:39:11.066Z,21.91
2022-08-27T02:41:37.499Z,21.91
2022-08-27T02:44:10.183Z,21.93
2022-08-27T02:46:38.720Z,21.93
2022-08-27T02:49:05.448Z,21.96
2022-08-27T02:51:31.895Z,21.94
2022-08-27T02:53:58.396Z,21.94
2022-08-27T02:56:24.818Z,21.93
2022-08-27T02:58:51.245Z,21.92
2022-08-27T03:01:17.683Z,21.94
2022-08-27T03:03:44.140Z,21.95
2022-08-27T03:06:11.089Z,21.97
2022-08-27T03:08:52.612Z,21.95
2022-08-27T03:11:22.432Z,21.93
2022-08-27T03:13:48.944Z,21.89
2022-08-27T03:16:15.437Z,21.85
2022-08-27T03:18:41.922Z,21.84
2022-08-27T03:21:08.544Z,21.81
2022-08-27T03:23:35.489Z,21.81
2022-08-27T03:26:04.900Z,21.80
2022-08-27T03:28:34.351Z,21.80
2022-08-27T03:31:03.542Z,21.80
2022-08-27T03:33:32.958Z,21.78
2022-08-27T03:35:59.755Z,21.76
2022-08-27T03:38:26.242Z,21.78
2022-08-27T03:40:53.282Z,21.78
2022-08-27T03:43:22.069Z,21.74
2022-08-27T03:46:01.006Z,21.74
2022-08-27T03:48:29.915Z,21.70
2022-08-27T03:50:56.416Z,21.65
2022-08-27T03:53:22.849Z,21.66
2022-08-27T03:55:49.517Z,21.70
2022-08-27T03:58:17.914Z,21.72
2022-08-27T04:00:44.382Z,21.74
2022-08-27T04:03:13.096Z,21.74
2022-08-27T04:05:39.724Z,21.75
2022-08-27T04:08:06.927Z,21.66
2022-08-27T04:10:34.834Z,21.71
2022-08-27T04:13:01.801Z,21.72
2022-08-27T04:15:28.255Z,21.70
2022-08-27T04:17:54.700Z,21.74
2022-08-27T04:20:36.615Z,21.72
2022-08-27T04:23:03.862Z,21.75
2022-08-27T04:25:30.306Z,21.74
2022-08-27T04:27:56.914Z,21.69
2022-08-27T04:30:23.501Z,21.72
2022-08-27T04:32:50.603Z,21.66
2022-08-27T04:35:17.245Z,21.69
2022-08-27T04:37:43.718Z,21.68
2022-08-27T04:40:10.412Z,21.71
2022-08-27T04:42:37.007Z,21.72
2022-08-27T04:45:04.342Z,21.76
2022-08-27T04:47:31.050Z,21.78
2022-08-27T04:49:57.520Z,21.79
2022-08-27T04:52:24.843Z,21.81
2022-08-27T04:54:51.534Z,21.83
2022-08-27T04:57:18.107Z,21.83
2022-08-27T04:59:44.691Z,21.79
2022-08-27T05:02:11.187Z,21.81
2022-08-27T05:04:40.032Z,21.74
2022-08-27T05:07:08.361Z,21.81
2022-08-27T05:09:34.984Z,21.80
2022-08-27T05:12:01.675Z,21.84
2022-08-27T05:14:32.601Z,21.84
2022-08-27T05:16:59.724Z,21.84
2022-08-27T05:19:27.565Z,21.79
2022-08-27T05:21:54.167Z,21.75
2022-08-27T05:24:20.976Z,21.70
2022-08-27T05:26:47.809Z,21.71
2022-08-27T05:29:14.654Z,21.72
2022-08-27T05:31:42.488Z,21.69
2022-08-27T05:34:10.640Z,21.69
2022-08-27T05:36:48.502Z,21.67
2022-08-27T05:39:16.436Z,21.70
2022-08-27T05:41:43.086Z,21.73
2022-08-27T05:46:56.773Z,21.72
2022-08-27T05:49:23.286Z,21.64
2022-08-27T05:51:49.745Z,21.66
2022-08-27T05:54:19.244Z,21.70
2022-08-27T05:56:46.021Z,21.73
2022-08-27T05:59:34.806Z,21.74
2022-08-27T06:02:01.920Z,21.76
2022-08-27T06:04:28.387Z,21.72
2022-08-27T06:06:54.821Z,21.74
2022-08-27T06:09:23.896Z,21.76
2022-08-27T06:11:50.477Z,21.80
2022-08-27T06:14:16.996Z,21.83
2022-08-27T06:16:56.911Z,21.86
2022-08-27T06:19:23.931Z,21.80
2022-08-27T06:22:00.694Z,21.85
2022-08-27T06:24:28.692Z,21.84
2022-08-27T06:26:57.394Z,21.78
2022-08-27T06:29:25.086Z,21.78
2022-08-27T06:31:52.581Z,21.77
2022-08-27T06:34:19.016Z,21.80
2022-08-27T06:36:45.450Z,21.87
2022-08-27T06:39:15.399Z,21.91
2022-08-27T06:41:43.684Z,21.94
2022-08-27T06:44:11.081Z,21.95
2022-08-27T06:46:38.630Z,21.98
2022-08-27T06:49:05.343Z,21.98
2022-08-27T06:51:34.049Z,21.94
2022-08-27T06:54:06.599Z,21.97
2022-08-27T06:56:33.265Z,21.98
2022-08-27T06:59:02.071Z,21.94
2022-08-27T07:01:31.293Z,21.94
2022-08-27T07:04:00.110Z,21.95
2022-08-27T07:06:29.277Z,21.96
2022-08-27T07:08:57.109Z,21.99
2022-08-27T07:11:24.263Z,22.01
2022-08-27T07:13:51.207Z,22.04
2022-08-27T07:16:19.876Z,21.98
2022-08-27T07:18:50.758Z,22.02
2022-08-27T07:21:20.030Z,21.96
2022-08-27T07:23:47.552Z,22.04
2022-08-27T07:26:15.135Z,21.97
2022-08-27T07:28:43.118Z,22.01
2022-08-27T07:31:13.778Z,21.82
2022-08-27T07:33:42.112Z,21.93
2022-08-27T07:36:17.869Z,21.93
2022-08-27T07:38:44.320Z,22.01
2022-08-27T07:41:16.866Z,22.03
2022-08-27T07:44:01.908Z,22.14
2022-08-27T07:46:28.565Z,22.36
2022-08-27T07:48:56.470Z,22.49
2022-08-27T07:51:24.614Z,22.51
2022-08-27T07:53:51.463Z,22.68
2022-08-27T07:56:18.724Z,22.83
2022-08-27T07:58:45.314Z,22.92
2022-08-27T08:01:11.788Z,23.04
2022-08-27T08:03:38.267Z,23.14
2022-08-27T08:06:07.886Z,23.12
2022-08-27T08:08:35.576Z,23.19
2022-08-27T08:11:06.055Z,23.15
2022-08-27T08:13:32.558Z,23.28
2022-08-27T08:15:59.265Z,23.33
2022-08-27T08:18:26.703Z,23.37
2022-08-27T08:20:58.501Z,23.26
2022-08-27T08:23:25.377Z,23.56
2022-08-27T08:25:51.843Z,23.48
2022-08-27T08:28:18.284Z,23.47
2022-08-27T08:30:44.745Z,23.60
2022-08-27T08:33:13.352Z,23.49
2022-08-27T08:35:41.313Z,23.63
2022-08-27T08:38:08.298Z,23.58
2022-08-27T08:40:39.092Z,23.69
2022-08-27T08:43:07.718Z,23.59
2022-08-27T08:45:37.711Z,23.70
2022-08-27T08:48:20.087Z,23.68
2022-08-27T08:51:02.082Z,23.50
2022-08-27T08:53:46.027Z,23.63
2022-08-27T08:56:18.559Z,23.44
2022-08-27T08:58:53.023Z,23.46
2022-08-27T09:01:20.899Z,23.50
2022-08-27T09:03:59.125Z,23.41
2022-08-27T09:06:40.124Z,23.58
2022-08-27T09:09:33.568Z,23.62
2022-08-27T09:12:24.839Z,23.58
2022-08-27T09:14:58.540Z,23.65
2022-08-27T09:17:25.667Z,23.73
2022-08-27T09:19:52.511Z,23.65
2022-08-27T09:22:30.009Z,23.60
2022-08-27T09:25:22.497Z,23.66
2022-08-27T09:27:54.224Z,23.59
2022-08-27T09:30:29.910Z,23.47
2022-08-27T09:33:00.375Z,23.54
2022-08-27T09:35:29.068Z,23.57
2022-08-27T09:37:56.284Z,23.67
2022-08-27T09:40:33.173Z,23.66
2022-08-27T09:43:08.870Z,23.66
2022-08-27T09:45:35.879Z,23.67
2022-08-27T09:48:15.064Z,23.63
2022-08-27T09:50:48.463Z,23.59
2022-08-27T09:53:27.008Z,23.71
2022-08-27T09:55:59.340Z,23.79
2022-08-27T09:58:32.212Z,23.82
2022-08-27T10:01:07.546Z,23.88
2022-08-27T10:03:34.237Z,23.96
2022-08-27T10:06:00.993Z,23.99
2022-08-27T10:08:46.474Z,23.84
2022-08-27T10:11:38.257Z,23.66
2022-08-27T10:14:25.959Z,23.54
2022-08-27T10:17:04.858Z,23.53
2022-08-27T10:19:44.758Z,23.52
2022-08-27T10:22:17.588Z,23.50
2022-08-27T10:25:15.569Z,23.57
2022-08-27T10:28:04.946Z,23.75
2022-08-27T10:30:51.619Z,23.94
2022-08-27T10:33:41.397Z,24.07
2022-08-27T10:36:29.160Z,24.17
2022-08-27T10:39:03.755Z,24.17
2022-08-27T10:41:35.093Z,24.30
2022-08-27T10:44:25.881Z,24.33
2022-08-27T10:47:19.772Z,24.42
2022-08-27T10:50:08.984Z,24.57
2022-08-27T10:52:42.001Z,24.81
2022-08-27T10:55:31.154Z,24.88
2022-08-27T10:58:43.149Z,24.86
2022-08-27T11:03:46.093Z,25.13
2022-08-27T11:06:26.285Z,25.18
2022-08-27T11:09:07.715Z,25.23
2022-08-27T11:14:30.815Z,25.38
2022-08-27T11:17:04.639Z,25.39
2022-08-27T11:19:54.334Z,25.39
2022-08-27T11:22:26.229Z,25.51
2022-08-27T11:25:13.383Z,25.52
2022-08-27T11:27:40.781Z,25.73
2022-08-27T11:30:12.024Z,25.75
2022-08-27T11:32:58.600Z,25.88
2022-08-27T11:35:59.746Z,25.86
2022-08-27T11:38:59.680Z,25.92
2022-08-27T11:42:00.566Z,26.01
2022-08-27T11:44:27.217Z,25.91
2022-08-27T11:47:08.141Z,25.97
2022-08-27T11:49:48.098Z,25.88
2022-08-27T11:52:41.484Z,25.86
2022-08-27T11:55:19.900Z,25.85
2022-08-27T11:57:48.229Z,25.82
2022-08-27T12:00:30.518Z,25.76
2022-08-27T12:03:00.066Z,25.87
2022-08-27T12:05:36.454Z,25.83
2022-08-27T12:08:33.128Z,25.78
2022-08-27T12:11:36.926Z,25.86
2022-08-27T12:14:40.826Z,25.95
2022-08-27T12:17:14.230Z,25.89
2022-08-27T12:20:06.210Z,25.84
2022-08-27T12:23:00.962Z,25.88
2022-08-27T12:25:27.566Z,25.96
2022-08-27T12:27:59.719Z,25.86
2022-08-27T12:30:32.270Z,25.93
2022-08-27T12:33:04.416Z,25.96
2022-08-27T12:35:47.367Z,25.82
2022-08-27T12:38:46.311Z,25.96
2022-08-27T12:41:43.957Z,26.05
2022-08-27T12:44:31.656Z,26.05
2022-08-27T12:47:02.023Z,26.06
2022-08-27T12:49:38.515Z,26.05
2022-08-27T12:52:18.300Z,26.03
2022-08-27T12:55:04.383Z,26.01
2022-08-27T12:57:50.036Z,25.98
2022-08-27T13:00:19.679Z,25.97
2022-08-27T13:03:18.682Z,26.05
2022-08-27T13:05:49.480Z,26.10
2022-08-27T13:08:21.906Z,26.16
2022-08-27T13:10:49.377Z,26.15
2022-08-27T13:13:19.707Z,26.23
2022-08-27T13:15:52.686Z,26.36
2022-08-27T13:18:19.438Z,26.36
2022-08-27T13:20:51.500Z,26.19
2022-08-27T13:23:24.880Z,26.23
2022-08-27T13:26:06.687Z,26.23
2022-08-27T13:28:34.295Z,26.16
2022-08-27T13:31:01.448Z,26.18
2022-08-27T13:33:31.520Z,25.93
2022-08-27T13:35:58.894Z,25.80
2022-08-27T13:38:28.111Z,25.80
2022-08-27T13:41:08.760Z,25.81
2022-08-27T13:43:38.390Z,25.71
2022-08-27T13:46:07.500Z,25.77
2022-08-27T13:48:34.033Z,25.81
2022-08-27T13:51:00.495Z,25.62
2022-08-27T13:53:48.737Z,25.39
2022-08-27T13:56:28.037Z,25.21
2022-08-27T13:58:54.643Z,25.02
2022-08-27T14:01:28.408Z,24.87
2022-08-27T14:04:04.128Z,24.82
2022-08-27T14:06:46.143Z,24.86
2022-08-27T14:09:26.110Z,24.67
2022-08-27T14:12:28.806Z,24.61
2022-08-27T14:15:11.003Z,24.75
2022-08-27T14:17:38.238Z,24.71
2022-08-27T14:20:06.623Z,24.58
2022-08-27T14:22:35.804Z,24.42
2022-08-27T14:25:02.548Z,24.45
2022-08-27T14:27:29.116Z,24.50
2022-08-27T14:29:55.575Z,24.39
2022-08-27T14:32:22.045Z,24.40
2022-08-27T14:34:48.506Z,24.27
2022-08-27T14:37:15.438Z,24.21
2022-08-27T14:39:43.296Z,24.32
2022-08-27T14:42:11.797Z,24.16
2022-08-27T14:44:38.557Z,24.03
2022-08-27T14:47:09.429Z,24.13
2022-08-27T14:49:39.237Z,24.09
2022-08-27T14:52:06.562Z,24.06
2022-08-27T14:54:33.765Z,23.90
2022-08-27T14:57:02.261Z,24.01
2022-08-27T14:59:29.226Z,24.02
2022-08-27T15:01:56.974Z,24.01
2022-08-27T15:04:24.807Z,24.03
2022-08-27T15:06:52.803Z,24.04
2022-08-27T15:09:19.477Z,24.01
2022-08-27T15:11:47.452Z,23.92
2022-08-27T15:14:34.227Z,23.81
2022-08-27T15:17:01.197Z,23.77
2022-08-27T15:19:29.026Z,23.66
2022-08-27T15:22:16.737Z,23.53
2022-08-27T15:24:46.889Z,23.51
2022-08-27T15:27:13.552Z,23.52
2022-08-27T15:29:40.664Z,23.46
2022-08-27T15:32:10.209Z,23.46
2022-08-27T15:34:37.092Z,23.34
2022-08-27T15:37:03.884Z,23.39
2022-08-27T15:39:30.332Z,23.47
2022-08-27T15:42:06.971Z,23.48
2022-08-27T15:44:34.613Z,23.45
2022-08-27T15:47:01.383Z,23.46
2022-08-27T15:49:27.888Z,23.28
2022-08-27T15:51:55.331Z,23.35
2022-08-27T15:54:25.935Z,23.29
2022-08-27T15:56:52.372Z,23.32
2022-08-27T15:59:18.886Z,23.19
2022-08-27T16:01:45.476Z,23.19
2022-08-27T16:04:12.069Z,23.24
2022-08-27T16:06:38.682Z,23.24
2022-08-27T16:09:05.638Z,23.24
2022-08-27T16:11:32.458Z,23.19
2022-08-27T16:13:59.025Z,23.26
2022-08-27T16:16:28.464Z,23.25
2022-08-27T16:18:55.048Z,23.27
2022-08-27T16:21:21.550Z,23.16
2022-08-27T16:23:50.569Z,23.14
2022-08-27T16:26:17.021Z,23.17
2022-08-27T16:28:44.366Z,23.18
2022-08-27T16:31:13.288Z,23.14
2022-08-27T16:33:41.908Z,23.16
2022-08-27T16:36:08.807Z,23.15
2022-08-27T16:38:36.065Z,23.13
2022-08-27T16:41:03.577Z,23.16
2022-08-27T16:43:30.037Z,23.21
2022-08-27T16:45:59.214Z,23.22
2022-08-27T16:48:44.935Z,23.24
2022-08-27T16:51:18.125Z,23.38
2022-08-27T16:53:44.882Z,23.31
2022-08-27T16:56:11.364Z,23.25
2022-08-27T16:58:40.438Z,23.27
2022-08-27T17:01:08.699Z,23.31
2022-08-27T17:04:07.457Z,23.28
2022-08-27T17:06:31.853Z,23.32
2022-08-27T17:08:59.490Z,23.28
2022-08-27T17:11:27.829Z,23.25
2022-08-27T17:13:57.133Z,23.25
2022-08-27T17:16:25.585Z,23.24
2022-08-27T17:18:52.372Z,23.20
2022-08-27T17:21:20.465Z,23.23
2022-08-27T17:23:49.215Z,23.21
2022-08-27T17:26:16.758Z,23.16
2022-08-27T17:28:44.043Z,23.15
2022-08-27T17:31:12.840Z,23.05
2022-08-27T17:33:42.578Z,23.02
2022-08-27T17:36:10.108Z,22.98
2022-08-27T17:38:38.749Z,23.00
2022-08-27T17:41:25.490Z,23.02
2022-08-27T17:43:52.102Z,22.99
2022-08-27T17:46:18.868Z,23.03
2022-08-27T17:48:45.340Z,22.99
2022-08-27T17:51:12.597Z,22.89
2022-08-27T17:53:44.892Z,22.83
2022-08-27T17:56:11.325Z,22.82
2022-08-27T17:58:37.758Z,22.78
2022-08-27T18:01:04.972Z,22.76
2022-08-27T18:03:44.307Z,22.71
2022-08-27T18:06:14.912Z,22.71
2022-08-27T18:08:41.435Z,22.72
2022-08-27T18:11:11.072Z,22.72
2022-08-27T18:13:37.898Z,22.69
2022-08-27T18:16:05.014Z,22.70
2022-08-27T18:18:32.199Z,22.68
2022-08-27T18:20:58.651Z,22.69
2022-08-27T18:23:25.208Z,22.67
2022-08-27T18:25:52.001Z,22.68
2022-08-27T18:28:19.331Z,22.71
2022-08-27T18:30:46.563Z,22.72
2022-08-27T18:33:14.078Z,22.64
2022-08-27T18:35:41.380Z,22.67
2022-08-27T18:38:08.229Z,22.70
2022-08-27T18:40:38.101Z,22.67
2022-08-27T18:43:05.129Z,22.68
2022-08-27T18:45:33.189Z,22.62
2022-08-27T18:48:00.148Z,22.63
2022-08-27T18:50:27.118Z,22.60
2022-08-27T18:52:55.204Z,22.64
2022-08-27T18:55:25.600Z,22.65
2022-08-27T18:57:52.098Z,22.68
2022-08-27T19:00:19.852Z,22.70
2022-08-27T19:02:51.884Z,22.71
2022-08-27T19:05:21.152Z,22.73
2022-08-27T19:07:47.600Z,22.69
2022-08-27T19:10:15.510Z,22.71
2022-08-27T19:12:41.977Z,22.68
2022-08-27T19:15:11.414Z,22.69
2022-08-27T19:17:38.443Z,22.71
2022-08-27T19:20:06.451Z,22.72
2022-08-27T19:22:33.041Z,22.68
2022-08-27T19:25:00.026Z,22.58
2022-08-27T19:27:27.910Z,22.56
2022-08-27T19:29:54.387Z,22.50
2022-08-27T19:32:21.136Z,22.47
2022-08-27T19:34:47.654Z,22.45
2022-08-27T19:37:21.473Z,22.45
2022-08-27T19:39:47.906Z,22.41
2022-08-27T19:42:14.487Z,22.38
2022-08-27T19:44:41.080Z,22.34
2022-08-27T19:47:09.220Z,22.32
2022-08-27T19:49:36.195Z,22.23
2022-08-27T19:52:06.190Z,22.24
2022-08-27T19:54:37.623Z,22.22
2022-08-27T19:57:13.675Z,22.22
2022-08-27T19:59:40.125Z,22.16
2022-08-27T20:02:08.917Z,22.14
2022-08-27T20:04:44.641Z,22.14
2022-08-27T20:07:18.475Z,22.12
2022-08-27T20:09:45.142Z,22.10
2022-08-27T20:12:13.883Z,22.07
2022-08-27T20:14:41.184Z,22.08
2022-08-27T20:17:08.529Z,22.06
2022-08-27T20:19:35.943Z,22.05
2022-08-27T20:22:02.514Z,22.04
2022-08-27T20:24:28.951Z,22.05
2022-08-27T20:26:56.844Z,22.03
2022-08-27T20:29:32.579Z,22.00
2022-08-27T20:31:59.453Z,21.99
2022-08-27T20:34:25.951Z,21.96
2022-08-27T20:36:55.983Z,21.96
2022-08-27T20:39:22.451Z,21.95
2022-08-27T20:41:48.899Z,21.93
2022-08-27T20:44:16.964Z,21.91
2022-08-27T20:46:43.446Z,21.89
2022-08-27T20:49:17.563Z,21.87
2022-08-27T20:51:51.532Z,21.86
2022-08-27T20:54:29.002Z,21.84
2022-08-27T20:56:55.456Z,21.83
2022-08-27T20:59:40.395Z,21.78
2022-08-27T21:02:09.366Z,21.77
2022-08-27T21:04:40.851Z,21.75
2022-08-27T21:07:07.386Z,21.74
2022-08-27T21:09:34.093Z,21.70
2022-08-27T21:12:00.522Z,21.68
2022-08-27T21:14:27.793Z,21.67
2022-08-27T21:16:54.614Z,21.63
2022-08-27T21:19:21.301Z,21.64
2022-08-27T21:21:47.725Z,21.62
2022-08-27T21:24:14.189Z,21.63
2022-08-27T21:26:41.142Z,21.63
2022-08-27T21:29:07.601Z,21.61
2022-08-27T21:31:34.128Z,21.59
2022-08-27T21:34:00.813Z,21.58
2022-08-27T21:36:27.245Z,21.54
2022-08-27T21:38:53.694Z,21.54
2022-08-27T21:41:20.423Z,21.53
2022-08-27T21:43:47.004Z,21.50
2022-08-27T21:46:13.508Z,21.47
2022-08-27T21:48:40.010Z,21.43
2022-08-27T21:51:10.070Z,21.39
2022-08-27T21:53:36.869Z,21.37
2022-08-27T21:56:03.575Z,21.35
2022-08-27T21:58:30.075Z,21.23
2022-08-27T22:00:56.561Z,21.21
2022-08-27T22:03:24.408Z,21.18
2022-08-27T22:05:51.156Z,21.15
2022-08-27T22:08:19.717Z,21.15
2022-08-27T22:10:48.489Z,21.04
2022-08-27T22:13:14.986Z,21.04
2022-08-27T22:15:41.553Z,20.97
2022-08-27T22:18:08.310Z,20.90
2022-08-27T22:20:35.361Z,20.90
2022-08-27T22:23:02.102Z,20.86
2022-08-27T22:25:28.628Z,20.77
2022-08-27T22:27:55.306Z,20.78
2022-08-27T22:30:21.874Z,20.69
2022-08-27T22:32:48.356Z,20.63
2022-08-27T22:35:15.985Z,20.65
2022-08-27T22:37:42.977Z,20.60
2022-08-27T22:40:19.313Z,20.62
2022-08-27T22:42:46.737Z,20.57
2022-08-27T22:45:13.202Z,20.54
2022-08-27T22:47:39.635Z,20.49
2022-08-27T22:50:07.208Z,20.41
2022-08-27T22:52:33.692Z,20.38
2022-08-27T22:55:00.164Z,20.37
2022-08-27T22:57:26.760Z,20.32
2022-08-27T22:59:53.210Z,20.28
2022-08-27T23:02:19.830Z,20.26
2022-08-27T23:04:54.957Z,20.22
2022-08-27T23:07:22.485Z,20.24
2022-08-27T23:09:48.924Z,20.17
2022-08-27T23:12:15.535Z,20.12
2022-08-27T23:14:42.000Z,20.10
2022-08-27T23:17:08.486Z,20.03
2022-08-27T23:19:34.935Z,19.96
2022-08-27T23:22:01.394Z,19.99
2022-08-27T23:24:33.034Z,19.93
2022-08-27T23:27:18.076Z,19.89
2022-08-27T23:29:45.588Z,19.85
2022-08-27T23:32:12.078Z,19.81
2022-08-27T23:34:38.493Z,19.81
2022-08-27T23:37:04.963Z,19.77
2022-08-27T23:39:31.433Z,19.75
2022-08-27T23:41:57.880Z,19.64
2022-08-27T23:44:28.381Z,19.63
2022-08-27T23:46:54.998Z,19.62
2022-08-27T23:49:21.475Z,19.61
2022-08-27T23:51:47.915Z,19.62
2022-08-27T23:54:14.347Z,19.57
2022-08-27T23:56:40.938Z,19.53
2022-08-27T23:59:07.385Z,19.48
